KVER

Details ICAO KVER
Name JESSE VIERTEL MEM
Region United States
Timezone America/Chicago (UTC-5.0)
Plans Departing 1
Arriving 0
Stats Elevation 715 ft / 218 m (AMSL)
Location 38.946729° -92.682670°
Runways 1
Magnetic Variation 0.249° E
Sunrise 2018-05-21 10:54:41 UTC / 2018-05-21 05:54:41 Local
Sunset 2018-05-22 01:22:51 UTC / 2018-05-21 20:22:51 Local
Advertisement - Login to hide

Runways

ID Width Length Bearing (true) Bearing (mag) Surface Threshold Offset Overrun Length
18 75 ft / 23 m 4,006 ft / 1,221 m 184.65° 184.40° Asphalt 0 ft / 0 m 0 ft / 0 m
36 75 ft / 23 m 4,006 ft / 1,221 m 4.65° 4.40° Asphalt 0 ft / 0 m 0 ft / 0 m

Map

Weather


0- 5 10 15 20 25 30 35+ Temperature / ° C

Clouds and Precipitation
Forecast for 2018-05-21 18:00 UTC. Updated 2 hours ago

Ground ~20,000 ft ~40,000 ft Winds

METAR

KVER 211935Z AUTO 24008KT 10SM BKN029 BKN034 24/18 A3003 RMK AO2 T02370177

TAF

Not found

Frequencies

Unicom 122.70 MHz CTAF/UNICOM
Approach 124.37 MHz MIZZU APP/DEP
Warning: Do not use this data for real-world aviation or navigation. No guarantee of current accuracy is given.